ROMMA est une association bénévole à but non lucratif. Votre soutien est indispensable : ADHERER à ROMMA ou FAIRE un DON

Briord - (01, Ain)

Bugey (281 m)   Longitude: 05° 29' 13" E   Latitude: 45° 46' 37" N Station partenaire n°15
 

Détail journalier du     <<     >>

Température Precipitation Humidité Pression Vent Dir Rafale Dir. rafale Ensol.
Heure (°C) (mm) (%) (hPa) (km/h) (km/h) (min)
01:00 6.6084101600---0
02:00 6.0085101602E0
03:00 5.9085101500---0
04:00 5.4085101503SE0
05:00 4.7087101500---0
06:00 4.4089101500---0
07:00 3.9088101500---0
08:00 3.9089101500---20
09:00 6.1089101600---15
10:00 10.6074101600---60
11:00 12.606810161NO5NO55
12:00 15.005910161ONO5NO55
13:00 17.304810162ONO10O60
14:00 18.805010153NO15NO60
15:00 19.804510142ONO13O30
16:00 20.603810145SO16OSO55
17:00 20.203910133SO15O20
18:00 21.603110132O11O50
19:00 18.904310131SSO8SSO40
20:00 16.2055101305SSE40
21:00 11.4066101400---0
22:00 10.5068101403ESE0
23:00 9.3074101406ESE0
minuit 8.7071101506NE0

Graphique du 01-04-2019

 

Serveur OMMA